Orbital elements of COSMOS 941
| Launched | 23 August 1977 |
| Flight ended | – |
| Launch site | Plesetsk Missile and Space Complex, Russia |
| Owner | Commonwealth of Independent States (former USSR) |
| NORAD ID | 10287 |
| Date fetched |
Epoch osculation |
Inc. [°] |
Ecc. | RA asc node [hr] |
Arg Peri. [°] |
Mean anom [°] |
Mean motion [rev/day] |
Abs. mag |
| Date fetched |
Epoch osculation |
Inc. [°] |
Ecc. | RA asc node [hr] |
Arg Peri. [°] |
Mean anom [°] |
Mean motion [rev/day] |
Abs. mag |
| 2026 May 08 17:57 | 2026 May 05 09:07:21 | 74.0231 | 0.00308 | 6.0104 | 52.1413 | 62.5111 | 12.56551 | – |
| 2026 May 07 17:58 | 2026 May 05 09:07:21 | 74.0231 | 0.00308 | 6.0104 | 52.1413 | 62.5111 | 12.56551 | – |
| 2026 May 06 17:57 | 2026 May 05 09:07:21 | 74.0231 | 0.00308 | 6.0104 | 52.1413 | 62.5111 | 12.56551 | – |
| 2026 May 05 17:57 | 2026 May 05 09:07:21 | 74.0231 | 0.00308 | 6.0104 | 52.1413 | 62.5111 | 12.56551 | – |
| 2026 May 04 17:57 | 2026 Apr 30 08:56:59 | 74.0223 | 0.00308 | 6.4596 | 59.8742 | 62.5111 | 12.56551 | – |
| 2026 May 03 17:57 | 2026 Apr 30 08:56:59 | 74.0223 | 0.00308 | 6.4596 | 59.8742 | 62.5111 | 12.56551 | – |
| 2026 May 02 17:57 | 2026 Apr 30 08:56:59 | 74.0223 | 0.00308 | 6.4596 | 59.8742 | 62.5111 | 12.56551 | – |
| 2026 May 01 17:56 | 2026 Apr 30 08:56:59 | 74.0223 | 0.00308 | 6.4596 | 59.8742 | 62.5111 | 12.56551 | – |
| 2026 Apr 30 17:56 | 2026 Apr 30 08:56:59 | 74.0223 | 0.00308 | 6.4596 | 59.8742 | 62.5111 | 12.56551 | – |
| 2026 Apr 29 17:57 | 2026 Apr 24 11:24:03 | 74.0214 | 0.00307 | 6.9888 | 68.9995 | 62.5111 | 12.56551 | – |
| 2026 Apr 28 17:56 | 2026 Apr 24 11:24:03 | 74.0214 | 0.00307 | 6.9888 | 68.9995 | 62.5111 | 12.56551 | – |
| 2026 Apr 27 17:58 | 2026 Apr 24 11:24:03 | 74.0214 | 0.00307 | 6.9888 | 68.9995 | 62.5111 | 12.56551 | – |
| 2026 Apr 26 17:58 | 2026 Apr 24 11:24:03 | 74.0214 | 0.00307 | 6.9888 | 68.9995 | 62.5111 | 12.56551 | – |
| 2026 Apr 25 17:58 | 2026 Apr 24 11:24:03 | 74.0214 | 0.00307 | 6.9888 | 68.9995 | 62.5111 | 12.56551 | – |
| 2026 Apr 24 17:59 | 2026 Apr 24 11:24:03 | 74.0214 | 0.00307 | 6.9888 | 68.9995 | 62.5111 | 12.56551 | – |
| 2026 Apr 23 17:57 | 2026 Apr 19 08:49:33 | 74.0213 | 0.00307 | 7.4470 | 76.9275 | 62.5111 | 12.56551 | – |
| 2026 Apr 22 17:57 | 2026 Apr 19 08:49:33 | 74.0213 | 0.00307 | 7.4470 | 76.9275 | 62.5111 | 12.56551 | – |
| 2026 Apr 21 17:57 | 2026 Apr 19 08:49:33 | 74.0213 | 0.00307 | 7.4470 | 76.9275 | 62.5111 | 12.56551 | – |
| 2026 Apr 20 17:57 | 2026 Apr 19 08:49:33 | 74.0213 | 0.00307 | 7.4470 | 76.9275 | 62.5111 | 12.56551 | – |
| 2026 Apr 19 17:58 | 2026 Apr 19 08:49:33 | 74.0213 | 0.00307 | 7.4470 | 76.9275 | 62.5111 | 12.56551 | – |
| 2026 Apr 18 17:56 | 2026 Apr 13 07:19:46 | 74.0212 | 0.00306 | 7.9909 | 86.3660 | 62.5111 | 12.56551 | – |
| 2026 Apr 16 17:57 | 2026 Apr 13 07:19:46 | 74.0212 | 0.00306 | 7.9909 | 86.3660 | 62.5111 | 12.56551 | – |
| 2026 Apr 14 17:57 | 2026 Apr 13 07:19:46 | 74.0212 | 0.00306 | 7.9909 | 86.3660 | 62.5111 | 12.56551 | – |
| 2026 Apr 13 17:57 | 2026 Apr 13 07:19:46 | 74.0212 | 0.00306 | 7.9909 | 86.3660 | 62.5111 | 12.56551 | – |
| 2026 Apr 12 17:57 | 2026 Apr 08 11:17:47 | 74.0218 | 0.00306 | 8.4247 | 93.8834 | 62.5111 | 12.56551 | – |
| 2026 Apr 11 17:57 | 2026 Apr 08 11:17:47 | 74.0218 | 0.00306 | 8.4247 | 93.8834 | 62.5111 | 12.56551 | – |